TimeCDT,TemperatureF,Dew PointF,Humidity,Sea Level PressureIn,VisibilityMPH,Wind Direction,Wind SpeedMPH,Gust SpeedMPH,PrecipitationIn,Events,Conditions,WindDirDegrees,DateUTC
12:53 AM,63.0,54.0,72,29.86,10.0,South,11.5,-,N/A,,Clear,180,2013-03-17 05:53:00
1:53 AM,62.1,55.0,78,29.86,10.0,South,9.2,-,N/A,,Clear,180,2013-03-17 06:53:00
2:53 AM,60.1,55.0,83,29.87,10.0,South,6.9,-,N/A,,Clear,170,2013-03-17 07:53:00
3:44 AM,60.8,55.4,82,29.87,10.0,SSW,3.5,-,N/A,,Mostly Cloudy,210,2013-03-17 08:44:00
3:53 AM,60.1,55.9,86,29.86,10.0,South,3.5,-,N/A,,Overcast,190,2013-03-17 08:53:00
4:31 AM,60.8,55.4,82,29.87,10.0,South,4.6,-,N/A,,Overcast,170,2013-03-17 09:31:00
4:53 AM,60.1,55.9,86,29.86,10.0,SSE,4.6,-,N/A,,Overcast,160,2013-03-17 09:53:00
5:53 AM,59.0,55.9,90,29.86,10.0,SE,3.5,-,N/A,,Overcast,140,2013-03-17 10:53:00
6:30 AM,59.0,55.4,88,29.88,10.0,South,5.8,-,N/A,,Overcast,170,2013-03-17 11:30:00
6:39 AM,59.0,55.4,88,29.88,10.0,South,4.6,-,N/A,,Overcast,170,2013-03-17 11:39:00
6:53 AM,57.9,55.9,93,29.87,10.0,South,5.8,-,0.00,Rain,Light Rain,170,2013-03-17 11:53:00
7:53 AM,59.0,57.0,93,29.87,10.0,SSE,9.2,-,0.00,,Overcast,160,2013-03-17 12:53:00
8:53 AM,60.1,57.9,93,29.88,10.0,SSE,9.2,-,N/A,,Overcast,160,2013-03-17 13:53:00
9:53 AM,63.0,57.9,84,29.88,10.0,South,8.1,17.3,N/A,,Overcast,190,2013-03-17 14:53:00
10:48 AM,64.4,59.0,83,29.88,10.0,South,10.4,-,N/A,,Overcast,180,2013-03-17 15:48:00
10:53 AM,64.9,59.0,81,29.88,10.0,SSW,10.4,-,N/A,,Overcast,200,2013-03-17 15:53:00
11:53 AM,66.0,60.1,81,29.86,10.0,South,9.2,-,N/A,,Overcast,170,2013-03-17 16:53:00
12:48 PM,69.8,60.8,73,29.84,10.0,SSE,8.1,-,N/A,,Overcast,160,2013-03-17 17:48:00
12:53 PM,69.1,60.1,73,29.83,10.0,South,10.4,-,N/A,,Overcast,190,2013-03-17 17:53:00
1:36 PM,71.6,60.8,69,29.81,10.0,SSW,8.1,-,N/A,,Overcast,200,2013-03-17 18:36:00
1:53 PM,71.1,62.1,73,29.80,10.0,Variable,5.8,-,0.00,Rain,Light Rain,0,2013-03-17 18:53:00
2:53 PM,73.0,59.0,61,29.75,10.0,SSE,12.7,20.7,0.00,,Mostly Cloudy,160,2013-03-17 19:53:00
3:53 PM,75.0,57.9,55,29.71,10.0,South,15.0,20.7,N/A,,Mostly Cloudy,180,2013-03-17 20:53:00
4:53 PM,75.0,59.0,57,29.71,10.0,South,10.4,18.4,N/A,,Overcast,190,2013-03-17 21:53:00
5:53 PM,75.0,57.9,55,29.69,10.0,South,8.1,-,N/A,,Mostly Cloudy,180,2013-03-17 22:53:00
6:53 PM,73.0,57.0,57,29.68,10.0,South,5.8,-,N/A,,Partly Cloudy,190,2013-03-17 23:53:00
7:53 PM,64.0,57.9,80,29.69,10.0,Calm,Calm,-,N/A,,Mostly Cloudy,0,2013-03-18 00:53:00
8:53 PM,63.0,57.9,84,29.70,10.0,Calm,Calm,-,N/A,,Overcast,0,2013-03-18 01:53:00
9:53 PM,68.0,59.0,73,29.71,10.0,South,6.9,-,N/A,,Overcast,180,2013-03-18 02:53:00
10:53 PM,68.0,61.0,78,29.71,10.0,South,8.1,-,N/A,,Overcast,170,2013-03-18 03:53:00
11:53 PM,68.0,61.0,78,29.72,10.0,South,11.5,-,N/A,,Mostly Cloudy,180,2013-03-18 04:53:00